sensor_id;sensor_type;location;lat;lon;timestamp;P1;durP1;ratioP1;P2;durP2;ratioP2
1320;SDS011;653;51.480;11.992;2024-02-28T00:00:08;42.37;;;23.93;;
1320;SDS011;653;51.480;11.992;2024-02-28T00:02:37;45.13;;;23.20;;
1320;SDS011;653;51.480;11.992;2024-02-28T00:05:09;38.90;;;23.30;;
1320;SDS011;653;51.480;11.992;2024-02-28T00:07:37;51.77;;;23.57;;
1320;SDS011;653;51.480;11.992;2024-02-28T00:10:04;41.60;;;22.50;;
1320;SDS011;653;51.480;11.992;2024-02-28T00:12:30;35.17;;;22.00;;
1320;SDS011;653;51.480;11.992;2024-02-28T00:14:58;39.23;;;22.30;;
1320;SDS011;653;51.480;11.992;2024-02-28T00:17:28;33.47;;;22.80;;
1320;SDS011;653;51.480;11.992;2024-02-28T00:19:54;34.27;;;22.13;;
1320;SDS011;653;51.480;11.992;2024-02-28T00:22:29;38.40;;;22.53;;
1320;SDS011;653;51.480;11.992;2024-02-28T00:24:55;36.90;;;20.70;;
1320;SDS011;653;51.480;11.992;2024-02-28T00:27:23;32.03;;;22.17;;
1320;SDS011;653;51.480;11.992;2024-02-28T00:29:50;35.80;;;20.93;;
1320;SDS011;653;51.480;11.992;2024-02-28T00:32:18;30.30;;;19.67;;
1320;SDS011;653;51.480;11.992;2024-02-28T00:34:46;36.50;;;21.83;;
1320;SDS011;653;51.480;11.992;2024-02-28T00:37:13;29.00;;;20.60;;
1320;SDS011;653;51.480;11.992;2024-02-28T00:39:43;33.27;;;21.50;;
1320;SDS011;653;51.480;11.992;2024-02-28T00:42:09;33.40;;;21.67;;
1320;SDS011;653;51.480;11.992;2024-02-28T00:44:37;28.47;;;20.30;;
1320;SDS011;653;51.480;11.992;2024-02-28T00:47:05;33.43;;;19.57;;
1320;SDS011;653;51.480;11.992;2024-02-28T00:49:33;36.87;;;20.43;;
1320;SDS011;653;51.480;11.992;2024-02-28T00:52:01;28.83;;;19.37;;
1320;SDS011;653;51.480;11.992;2024-02-28T00:54:29;37.97;;;23.70;;
1320;SDS011;653;51.480;11.992;2024-02-28T00:56:58;36.03;;;21.67;;
1320;SDS011;653;51.480;11.992;2024-02-28T00:59:28;33.77;;;20.70;;
1320;SDS011;653;51.480;11.992;2024-02-28T01:01:54;36.17;;;21.93;;
1320;SDS011;653;51.480;11.992;2024-02-28T01:04:22;35.30;;;21.13;;
1320;SDS011;653;51.480;11.992;2024-02-28T01:06:49;30.87;;;19.40;;
1320;SDS011;653;51.480;11.992;2024-02-28T01:09:17;30.33;;;20.17;;
1320;SDS011;653;51.480;11.992;2024-02-28T01:11:45;29.97;;;19.73;;
1320;SDS011;653;51.480;11.992;2024-02-28T01:14:15;32.50;;;21.20;;
1320;SDS011;653;51.480;11.992;2024-02-28T01:16:42;30.80;;;21.60;;
1320;SDS011;653;51.480;11.992;2024-02-28T01:19:09;31.03;;;19.30;;
1320;SDS011;653;51.480;11.992;2024-02-28T01:21:38;31.00;;;21.07;;
1320;SDS011;653;51.480;11.992;2024-02-28T01:24:05;34.10;;;21.27;;
1320;SDS011;653;51.480;11.992;2024-02-28T01:26:32;30.47;;;20.47;;
1320;SDS011;653;51.480;11.992;2024-02-28T01:29:00;30.13;;;21.60;;
1320;SDS011;653;51.480;11.992;2024-02-28T01:31:29;35.83;;;23.63;;
1320;SDS011;653;51.480;11.992;2024-02-28T01:33:55;33.53;;;22.30;;
1320;SDS011;653;51.480;11.992;2024-02-28T01:36:24;31.50;;;22.20;;
1320;SDS011;653;51.480;11.992;2024-02-28T01:38:52;37.50;;;24.50;;
1320;SDS011;653;51.480;11.992;2024-02-28T01:41:19;29.63;;;21.07;;
1320;SDS011;653;51.480;11.992;2024-02-28T01:43:46;36.03;;;23.97;;
1320;SDS011;653;51.480;11.992;2024-02-28T01:46:17;35.43;;;22.13;;
1320;SDS011;653;51.480;11.992;2024-02-28T01:48:47;36.77;;;23.27;;
1320;SDS011;653;51.480;11.992;2024-02-28T01:51:15;35.90;;;22.83;;
1320;SDS011;653;51.480;11.992;2024-02-28T01:53:43;36.00;;;24.30;;
1320;SDS011;653;51.480;11.992;2024-02-28T01:56:11;34.23;;;23.43;;
1320;SDS011;653;51.480;11.992;2024-02-28T01:58:41;33.30;;;24.07;;
1320;SDS011;653;51.480;11.992;2024-02-28T02:01:10;35.97;;;23.03;;
1320;SDS011;653;51.480;11.992;2024-02-28T02:03:37;31.17;;;22.53;;
1320;SDS011;653;51.480;11.992;2024-02-28T02:06:06;31.10;;;22.30;;
1320;SDS011;653;51.480;11.992;2024-02-28T02:08:34;34.80;;;23.27;;
1320;SDS011;653;51.480;11.992;2024-02-28T02:11:04;33.13;;;21.43;;
1320;SDS011;653;51.480;11.992;2024-02-28T02:13:31;31.50;;;21.70;;
1320;SDS011;653;51.480;11.992;2024-02-28T02:15:58;31.80;;;20.97;;
1320;SDS011;653;51.480;11.992;2024-02-28T02:18:25;34.60;;;22.47;;
1320;SDS011;653;51.480;11.992;2024-02-28T02:20:54;33.63;;;22.97;;
1320;SDS011;653;51.480;11.992;2024-02-28T02:23:29;30.80;;;21.80;;
1320;SDS011;653;51.480;11.992;2024-02-28T02:25:56;29.27;;;21.63;;
1320;SDS011;653;51.480;11.992;2024-02-28T02:28:23;32.90;;;20.87;;
1320;SDS011;653;51.480;11.992;2024-02-28T02:30:51;30.40;;;21.30;;
1320;SDS011;653;51.480;11.992;2024-02-28T02:33:17;32.03;;;21.60;;
1320;SDS011;653;51.480;11.992;2024-02-28T02:35:43;32.73;;;22.70;;
1320;SDS011;653;51.480;11.992;2024-02-28T02:38:13;33.13;;;21.10;;
1320;SDS011;653;51.480;11.992;2024-02-28T02:40:43;24.93;;;19.00;;
1320;SDS011;653;51.480;11.992;2024-02-28T02:43:13;28.97;;;18.27;;
1320;SDS011;653;51.480;11.992;2024-02-28T02:45:43;24.67;;;17.37;;
1320;SDS011;653;51.480;11.992;2024-02-28T02:48:10;27.20;;;18.80;;
1320;SDS011;653;51.480;11.992;2024-02-28T02:50:38;30.03;;;17.90;;
1320;SDS011;653;51.480;11.992;2024-02-28T02:53:07;25.37;;;18.27;;
1320;SDS011;653;51.480;11.992;2024-02-28T02:55:34;27.73;;;19.80;;
1320;SDS011;653;51.480;11.992;2024-02-28T02:58:10;25.40;;;18.70;;
1320;SDS011;653;51.480;11.992;2024-02-28T03:00:36;28.63;;;20.20;;
1320;SDS011;653;51.480;11.992;2024-02-28T03:03:04;30.90;;;20.13;;
1320;SDS011;653;51.480;11.992;2024-02-28T03:05:31;28.23;;;20.10;;
1320;SDS011;653;51.480;11.992;2024-02-28T03:08:01;27.13;;;18.63;;
1320;SDS011;653;51.480;11.992;2024-02-28T03:10:29;29.33;;;19.13;;
1320;SDS011;653;51.480;11.992;2024-02-28T03:12:56;32.83;;;18.73;;
1320;SDS011;653;51.480;11.992;2024-02-28T03:15:26;31.27;;;21.53;;
1320;SDS011;653;51.480;11.992;2024-02-28T03:17:52;25.87;;;19.63;;
1320;SDS011;653;51.480;11.992;2024-02-28T03:20:20;29.60;;;20.80;;
1320;SDS011;653;51.480;11.992;2024-02-28T03:22:46;27.10;;;19.13;;
1320;SDS011;653;51.480;11.992;2024-02-28T03:25:16;29.93;;;20.17;;
1320;SDS011;653;51.480;11.992;2024-02-28T03:27:45;30.83;;;20.00;;
1320;SDS011;653;51.480;11.992;2024-02-28T03:30:11;29.33;;;20.40;;
1320;SDS011;653;51.480;11.992;2024-02-28T03:32:40;32.27;;;20.97;;
1320;SDS011;653;51.480;11.992;2024-02-28T03:35:07;30.27;;;19.70;;
1320;SDS011;653;51.480;11.992;2024-02-28T03:37:35;29.73;;;19.43;;
1320;SDS011;653;51.480;11.992;2024-02-28T03:40:02;27.10;;;18.13;;
1320;SDS011;653;51.480;11.992;2024-02-28T03:42:32;28.80;;;20.17;;
1320;SDS011;653;51.480;11.992;2024-02-28T03:45:01;28.30;;;19.83;;
1320;SDS011;653;51.480;11.992;2024-02-28T03:47:30;29.47;;;20.60;;
1320;SDS011;653;51.480;11.992;2024-02-28T03:49:59;31.20;;;21.03;;
1320;SDS011;653;51.480;11.992;2024-02-28T03:52:29;31.77;;;20.23;;
1320;SDS011;653;51.480;11.992;2024-02-28T03:54:57;30.03;;;19.47;;
1320;SDS011;653;51.480;11.992;2024-02-28T03:57:24;29.20;;;19.10;;
1320;SDS011;653;51.480;11.992;2024-02-28T03:59:52;33.57;;;21.30;;
1320;SDS011;653;51.480;11.992;2024-02-28T04:02:18;27.07;;;20.20;;
1320;SDS011;653;51.480;11.992;2024-02-28T04:04:44;29.10;;;18.80;;
1320;SDS011;653;51.480;11.992;2024-02-28T04:07:12;31.10;;;20.67;;
1320;SDS011;653;51.480;11.992;2024-02-28T04:09:40;29.63;;;20.40;;
1320;SDS011;653;51.480;11.992;2024-02-28T04:12:11;25.47;;;18.00;;
1320;SDS011;653;51.480;11.992;2024-02-28T04:14:39;27.10;;;18.40;;
1320;SDS011;653;51.480;11.992;2024-02-28T04:17:07;29.20;;;19.73;;
1320;SDS011;653;51.480;11.992;2024-02-28T04:19:33;26.70;;;18.27;;
1320;SDS011;653;51.480;11.992;2024-02-28T04:22:03;28.07;;;18.30;;
1320;SDS011;653;51.480;11.992;2024-02-28T04:24:38;28.17;;;19.10;;
1320;SDS011;653;51.480;11.992;2024-02-28T04:27:05;29.00;;;19.57;;
1320;SDS011;653;51.480;11.992;2024-02-28T04:29:36;25.30;;;18.60;;
1320;SDS011;653;51.480;11.992;2024-02-28T04:32:04;26.70;;;18.30;;
1320;SDS011;653;51.480;11.992;2024-02-28T04:34:33;26.67;;;17.50;;
1320;SDS011;653;51.480;11.992;2024-02-28T04:37:01;27.30;;;17.83;;
1320;SDS011;653;51.480;11.992;2024-02-28T04:39:28;24.73;;;17.10;;
1320;SDS011;653;51.480;11.992;2024-02-28T04:41:57;24.27;;;17.20;;
1320;SDS011;653;51.480;11.992;2024-02-28T04:44:25;22.07;;;15.90;;
1320;SDS011;653;51.480;11.992;2024-02-28T04:46:53;23.67;;;16.73;;
1320;SDS011;653;51.480;11.992;2024-02-28T04:49:24;27.80;;;18.30;;
1320;SDS011;653;51.480;11.992;2024-02-28T04:51:53;24.40;;;16.13;;
1320;SDS011;653;51.480;11.992;2024-02-28T04:54:23;26.40;;;17.43;;
1320;SDS011;653;51.480;11.992;2024-02-28T04:56:50;26.13;;;17.13;;
1320;SDS011;653;51.480;11.992;2024-02-28T04:59:20;23.40;;;17.50;;
1320;SDS011;653;51.480;11.992;2024-02-28T05:01:56;23.03;;;16.40;;
1320;SDS011;653;51.480;11.992;2024-02-28T05:04:22;23.50;;;16.70;;
1320;SDS011;653;51.480;11.992;2024-02-28T05:06:50;24.00;;;16.60;;
1320;SDS011;653;51.480;11.992;2024-02-28T05:09:21;24.67;;;16.53;;
1320;SDS011;653;51.480;11.992;2024-02-28T05:11:48;23.30;;;16.90;;
1320;SDS011;653;51.480;11.992;2024-02-28T05:14:15;25.70;;;16.80;;
1320;SDS011;653;51.480;11.992;2024-02-28T05:16:43;24.30;;;16.37;;
1320;SDS011;653;51.480;11.992;2024-02-28T05:19:11;22.23;;;16.43;;
1320;SDS011;653;51.480;11.992;2024-02-28T05:21:39;22.93;;;18.13;;
1320;SDS011;653;51.480;11.992;2024-02-28T05:24:08;28.77;;;19.33;;
1320;SDS011;653;51.480;11.992;2024-02-28T05:26:35;24.80;;;16.67;;
1320;SDS011;653;51.480;11.992;2024-02-28T05:29:03;27.13;;;18.60;;
1320;SDS011;653;51.480;11.992;2024-02-28T05:31:30;25.40;;;17.57;;
1320;SDS011;653;51.480;11.992;2024-02-28T05:33:59;25.93;;;17.83;;
1320;SDS011;653;51.480;11.992;2024-02-28T05:36:26;25.83;;;16.80;;
1320;SDS011;653;51.480;11.992;2024-02-28T05:38:55;26.03;;;16.33;;
1320;SDS011;653;51.480;11.992;2024-02-28T05:41:30;24.00;;;16.20;;
1320;SDS011;653;51.480;11.992;2024-02-28T05:43:58;22.93;;;17.10;;
1320;SDS011;653;51.480;11.992;2024-02-28T05:46:24;22.93;;;16.20;;
1320;SDS011;653;51.480;11.992;2024-02-28T05:48:52;25.53;;;16.67;;
1320;SDS011;653;51.480;11.992;2024-02-28T05:51:22;25.00;;;18.00;;
1320;SDS011;653;51.480;11.992;2024-02-28T05:53:50;24.73;;;18.07;;
1320;SDS011;653;51.480;11.992;2024-02-28T05:56:18;27.77;;;18.20;;
1320;SDS011;653;51.480;11.992;2024-02-28T05:58:45;24.23;;;17.43;;
1320;SDS011;653;51.480;11.992;2024-02-28T06:01:12;22.87;;;16.57;;
1320;SDS011;653;51.480;11.992;2024-02-28T06:03:40;24.90;;;18.27;;
1320;SDS011;653;51.480;11.992;2024-02-28T06:06:07;27.20;;;17.90;;
1320;SDS011;653;51.480;11.992;2024-02-28T06:08:48;25.27;;;17.50;;
1320;SDS011;653;51.480;11.992;2024-02-28T06:11:16;26.50;;;18.80;;
1320;SDS011;653;51.480;11.992;2024-02-28T06:13:44;22.70;;;16.33;;
1320;SDS011;653;51.480;11.992;2024-02-28T06:16:14;25.50;;;18.33;;
1320;SDS011;653;51.480;11.992;2024-02-28T06:18:44;22.07;;;16.53;;
1320;SDS011;653;51.480;11.992;2024-02-28T06:21:12;20.80;;;15.43;;
1320;SDS011;653;51.480;11.992;2024-02-28T06:23:39;22.13;;;17.77;;
1320;SDS011;653;51.480;11.992;2024-02-28T06:26:11;22.63;;;15.73;;
1320;SDS011;653;51.480;11.992;2024-02-28T06:28:42;21.60;;;15.83;;
1320;SDS011;653;51.480;11.992;2024-02-28T06:31:11;20.50;;;15.40;;
1320;SDS011;653;51.480;11.992;2024-02-28T06:33:38;24.30;;;16.23;;
1320;SDS011;653;51.480;11.992;2024-02-28T06:36:05;19.57;;;14.37;;
1320;SDS011;653;51.480;11.992;2024-02-28T06:38:32;22.10;;;16.53;;
1320;SDS011;653;51.480;11.992;2024-02-28T06:41:01;18.97;;;15.40;;
1320;SDS011;653;51.480;11.992;2024-02-28T06:43:32;23.13;;;14.63;;
1320;SDS011;653;51.480;11.992;2024-02-28T06:46:00;18.03;;;13.20;;
1320;SDS011;653;51.480;11.992;2024-02-28T06:48:31;22.03;;;15.20;;
1320;SDS011;653;51.480;11.992;2024-02-28T06:50:59;18.23;;;14.10;;
1320;SDS011;653;51.480;11.992;2024-02-28T06:53:30;20.30;;;16.13;;
1320;SDS011;653;51.480;11.992;2024-02-28T06:56:00;17.80;;;12.73;;
1320;SDS011;653;51.480;11.992;2024-02-28T06:58:27;21.73;;;15.67;;
1320;SDS011;653;51.480;11.992;2024-02-28T07:00:56;22.57;;;15.20;;
1320;SDS011;653;51.480;11.992;2024-02-28T07:03:24;20.93;;;16.10;;
1320;SDS011;653;51.480;11.992;2024-02-28T07:05:51;23.10;;;16.07;;
1320;SDS011;653;51.480;11.992;2024-02-28T07:08:18;25.47;;;17.57;;
1320;SDS011;653;51.480;11.992;2024-02-28T07:10:47;22.87;;;15.77;;
1320;SDS011;653;51.480;11.992;2024-02-28T07:13:20;22.17;;;15.57;;
1320;SDS011;653;51.480;11.992;2024-02-28T07:15:47;20.90;;;15.27;;
1320;SDS011;653;51.480;11.992;2024-02-28T07:18:16;18.43;;;13.70;;
1320;SDS011;653;51.480;11.992;2024-02-28T07:20:43;22.00;;;15.40;;
1320;SDS011;653;51.480;11.992;2024-02-28T07:23:12;23.70;;;15.43;;
1320;SDS011;653;51.480;11.992;2024-02-28T07:25:39;21.50;;;16.33;;
1320;SDS011;653;51.480;11.992;2024-02-28T07:28:06;22.17;;;16.37;;
1320;SDS011;653;51.480;11.992;2024-02-28T07:30:34;23.27;;;15.27;;
1320;SDS011;653;51.480;11.992;2024-02-28T07:33:05;24.30;;;17.73;;
1320;SDS011;653;51.480;11.992;2024-02-28T07:35:34;23.13;;;17.73;;
1320;SDS011;653;51.480;11.992;2024-02-28T07:38:12;24.13;;;17.20;;
1320;SDS011;653;51.480;11.992;2024-02-28T07:40:42;22.60;;;15.80;;
1320;SDS011;653;51.480;11.992;2024-02-28T07:43:10;26.37;;;18.40;;
1320;SDS011;653;51.480;11.992;2024-02-28T07:45:42;19.37;;;15.87;;
1320;SDS011;653;51.480;11.992;2024-02-28T07:48:08;23.10;;;17.00;;
1320;SDS011;653;51.480;11.992;2024-02-28T07:50:39;22.13;;;16.37;;
1320;SDS011;653;51.480;11.992;2024-02-28T07:53:06;24.77;;;17.17;;
1320;SDS011;653;51.480;11.992;2024-02-28T07:55:33;20.83;;;17.20;;
1320;SDS011;653;51.480;11.992;2024-02-28T07:58:05;25.83;;;17.77;;
1320;SDS011;653;51.480;11.992;2024-02-28T08:00:33;25.33;;;17.50;;
1320;SDS011;653;51.480;11.992;2024-02-28T08:03:01;26.60;;;19.03;;
1320;SDS011;653;51.480;11.992;2024-02-28T08:05:29;22.80;;;17.93;;
1320;SDS011;653;51.480;11.992;2024-02-28T08:07:56;23.57;;;18.73;;
1320;SDS011;653;51.480;11.992;2024-02-28T08:10:26;25.27;;;18.30;;
1320;SDS011;653;51.480;11.992;2024-02-28T08:12:53;23.73;;;17.57;;
1320;SDS011;653;51.480;11.992;2024-02-28T08:15:21;25.03;;;18.63;;
1320;SDS011;653;51.480;11.992;2024-02-28T08:17:48;21.90;;;16.47;;
1320;SDS011;653;51.480;11.992;2024-02-28T08:20:16;24.43;;;17.73;;
1320;SDS011;653;51.480;11.992;2024-02-28T08:22:43;23.37;;;17.10;;
1320;SDS011;653;51.480;11.992;2024-02-28T08:25:21;24.77;;;16.20;;
1320;SDS011;653;51.480;11.992;2024-02-28T08:27:48;24.27;;;17.97;;
1320;SDS011;653;51.480;11.992;2024-02-28T08:30:16;20.67;;;15.27;;
1320;SDS011;653;51.480;11.992;2024-02-28T08:32:44;21.40;;;16.10;;
1320;SDS011;653;51.480;11.992;2024-02-28T08:35:12;20.70;;;16.07;;
1320;SDS011;653;51.480;11.992;2024-02-28T08:37:41;23.77;;;16.33;;
1320;SDS011;653;51.480;11.992;2024-02-28T08:40:08;23.07;;;14.57;;
1320;SDS011;653;51.480;11.992;2024-02-28T08:42:36;21.67;;;17.20;;
1320;SDS011;653;51.480;11.992;2024-02-28T08:45:04;24.83;;;16.53;;
1320;SDS011;653;51.480;11.992;2024-02-28T08:47:32;19.80;;;16.10;;
1320;SDS011;653;51.480;11.992;2024-02-28T08:50:00;19.73;;;14.97;;
1320;SDS011;653;51.480;11.992;2024-02-28T08:52:28;20.90;;;14.43;;
1320;SDS011;653;51.480;11.992;2024-02-28T08:54:55;21.40;;;15.17;;
1320;SDS011;653;51.480;11.992;2024-02-28T08:57:21;19.90;;;15.33;;
1320;SDS011;653;51.480;11.992;2024-02-28T08:59:52;21.40;;;15.07;;
1320;SDS011;653;51.480;11.992;2024-02-28T09:02:20;18.90;;;13.83;;
1320;SDS011;653;51.480;11.992;2024-02-28T09:04:48;16.60;;;13.77;;
1320;SDS011;653;51.480;11.992;2024-02-28T09:07:17;20.43;;;15.67;;
1320;SDS011;653;51.480;11.992;2024-02-28T09:09:44;22.73;;;14.73;;
1320;SDS011;653;51.480;11.992;2024-02-28T09:12:12;22.43;;;16.83;;
1320;SDS011;653;51.480;11.992;2024-02-28T09:14:38;20.80;;;14.67;;
1320;SDS011;653;51.480;11.992;2024-02-28T09:17:07;22.43;;;14.70;;
1320;SDS011;653;51.480;11.992;2024-02-28T09:19:34;27.27;;;17.27;;
1320;SDS011;653;51.480;11.992;2024-02-28T09:22:01;22.00;;;15.70;;
1320;SDS011;653;51.480;11.992;2024-02-28T09:24:27;25.47;;;16.63;;
1320;SDS011;653;51.480;11.992;2024-02-28T09:26:55;24.37;;;16.70;;
1320;SDS011;653;51.480;11.992;2024-02-28T09:29:26;21.80;;;14.33;;
1320;SDS011;653;51.480;11.992;2024-02-28T09:31:54;22.47;;;15.13;;
1320;SDS011;653;51.480;11.992;2024-02-28T09:34:26;23.23;;;16.70;;
1320;SDS011;653;51.480;11.992;2024-02-28T09:36:56;24.40;;;17.57;;
1320;SDS011;653;51.480;11.992;2024-02-28T09:39:23;23.47;;;16.80;;
1320;SDS011;653;51.480;11.992;2024-02-28T09:41:52;24.67;;;18.93;;
1320;SDS011;653;51.480;11.992;2024-02-28T09:44:19;21.60;;;16.47;;
1320;SDS011;653;51.480;11.992;2024-02-28T09:46:48;23.23;;;16.80;;
1320;SDS011;653;51.480;11.992;2024-02-28T09:49:21;19.43;;;15.60;;
1320;SDS011;653;51.480;11.992;2024-02-28T09:51:51;27.10;;;16.27;;
1320;SDS011;653;51.480;11.992;2024-02-28T09:54:18;23.47;;;16.53;;
1320;SDS011;653;51.480;11.992;2024-02-28T09:56:46;21.37;;;16.17;;
1320;SDS011;653;51.480;11.992;2024-02-28T09:59:15;24.07;;;17.00;;
1320;SDS011;653;51.480;11.992;2024-02-28T10:01:42;20.00;;;14.47;;
1320;SDS011;653;51.480;11.992;2024-02-28T10:04:09;23.60;;;17.17;;
1320;SDS011;653;51.480;11.992;2024-02-28T10:06:37;20.30;;;15.67;;
1320;SDS011;653;51.480;11.992;2024-02-28T10:09:09;25.57;;;16.70;;
1320;SDS011;653;51.480;11.992;2024-02-28T10:11:37;23.23;;;16.03;;
1320;SDS011;653;51.480;11.992;2024-02-28T10:14:06;24.47;;;17.13;;
1320;SDS011;653;51.480;11.992;2024-02-28T10:16:34;21.77;;;14.40;;
1320;SDS011;653;51.480;11.992;2024-02-28T10:19:06;23.37;;;15.80;;
1320;SDS011;653;51.480;11.992;2024-02-28T10:21:33;21.20;;;16.17;;
1320;SDS011;653;51.480;11.992;2024-02-28T10:24:01;20.53;;;14.70;;
1320;SDS011;653;51.480;11.992;2024-02-28T10:26:30;22.37;;;16.37;;
1320;SDS011;653;51.480;11.992;2024-02-28T10:29:04;24.80;;;16.50;;
1320;SDS011;653;51.480;11.992;2024-02-28T10:31:32;21.40;;;15.83;;
1320;SDS011;653;51.480;11.992;2024-02-28T10:34:02;21.93;;;16.67;;
1320;SDS011;653;51.480;11.992;2024-02-28T10:36:31;26.47;;;17.97;;
1320;SDS011;653;51.480;11.992;2024-02-28T10:39:00;20.57;;;15.80;;
1320;SDS011;653;51.480;11.992;2024-02-28T10:41:26;26.43;;;16.23;;
1320;SDS011;653;51.480;11.992;2024-02-28T10:43:56;26.23;;;17.23;;
1320;SDS011;653;51.480;11.992;2024-02-28T10:46:24;24.17;;;15.67;;
1320;SDS011;653;51.480;11.992;2024-02-28T10:48:52;23.80;;;16.63;;
1320;SDS011;653;51.480;11.992;2024-02-28T10:51:20;21.67;;;16.77;;
1320;SDS011;653;51.480;11.992;2024-02-28T10:53:56;20.73;;;15.60;;
1320;SDS011;653;51.480;11.992;2024-02-28T10:56:29;21.63;;;15.50;;
1320;SDS011;653;51.480;11.992;2024-02-28T10:58:58;20.00;;;15.57;;
1320;SDS011;653;51.480;11.992;2024-02-28T11:01:30;23.07;;;16.23;;
1320;SDS011;653;51.480;11.992;2024-02-28T11:04:05;20.67;;;15.00;;
1320;SDS011;653;51.480;11.992;2024-02-28T11:06:34;24.70;;;17.27;;
1320;SDS011;653;51.480;11.992;2024-02-28T11:09:12;19.27;;;14.93;;
1320;SDS011;653;51.480;11.992;2024-02-28T11:11:45;25.80;;;16.77;;
1320;SDS011;653;51.480;11.992;2024-02-28T11:14:21;20.77;;;14.70;;
1320;SDS011;653;51.480;11.992;2024-02-28T11:17:14;25.80;;;17.30;;
1320;SDS011;653;51.480;11.992;2024-02-28T11:19:49;22.57;;;16.57;;
1320;SDS011;653;51.480;11.992;2024-02-28T11:22:18;21.43;;;16.27;;
1320;SDS011;653;51.480;11.992;2024-02-28T11:24:56;23.67;;;16.10;;
1320;SDS011;653;51.480;11.992;2024-02-28T11:27:32;19.87;;;16.03;;
1320;SDS011;653;51.480;11.992;2024-02-28T11:30:07;26.10;;;18.40;;
1320;SDS011;653;51.480;11.992;2024-02-28T11:32:41;23.00;;;17.20;;
1320;SDS011;653;51.480;11.992;2024-02-28T11:35:09;21.57;;;16.97;;
1320;SDS011;653;51.480;11.992;2024-02-28T11:37:45;21.93;;;14.60;;
1320;SDS011;653;51.480;11.992;2024-02-28T11:40:15;21.23;;;15.17;;
1320;SDS011;653;51.480;11.992;2024-02-28T11:42:54;22.30;;;14.57;;
1320;SDS011;653;51.480;11.992;2024-02-28T11:45:23;20.93;;;16.00;;
1320;SDS011;653;51.480;11.992;2024-02-28T11:48:20;21.20;;;16.00;;
1320;SDS011;653;51.480;11.992;2024-02-28T11:50:39;20.07;;;15.30;;
1320;SDS011;653;51.480;11.992;2024-02-28T11:53:05;21.70;;;15.60;;
1320;SDS011;653;51.480;11.992;2024-02-28T11:55:34;16.63;;;13.17;;
1320;SDS011;653;51.480;11.992;2024-02-28T11:58:11;18.80;;;15.00;;
1320;SDS011;653;51.480;11.992;2024-02-28T12:00:47;19.50;;;14.87;;
1320;SDS011;653;51.480;11.992;2024-02-28T12:03:23;15.67;;;13.10;;
1320;SDS011;653;51.480;11.992;2024-02-28T12:05:59;20.77;;;15.10;;
1320;SDS011;653;51.480;11.992;2024-02-28T12:08:31;18.27;;;14.43;;
1320;SDS011;653;51.480;11.992;2024-02-28T12:11:05;20.50;;;14.90;;
1320;SDS011;653;51.480;11.992;2024-02-28T12:13:35;16.43;;;12.80;;
1320;SDS011;653;51.480;11.992;2024-02-28T12:16:05;17.90;;;12.70;;
1320;SDS011;653;51.480;11.992;2024-02-28T12:18:32;18.73;;;14.37;;
1320;SDS011;653;51.480;11.992;2024-02-28T12:21:01;18.00;;;14.00;;
1320;SDS011;653;51.480;11.992;2024-02-28T12:23:27;17.47;;;14.20;;
1320;SDS011;653;51.480;11.992;2024-02-28T12:25:57;18.20;;;13.30;;
1320;SDS011;653;51.480;11.992;2024-02-28T12:28:33;16.50;;;12.30;;
1320;SDS011;653;51.480;11.992;2024-02-28T12:31:04;20.93;;;15.13;;
1320;SDS011;653;51.480;11.992;2024-02-28T12:33:47;15.77;;;13.67;;
1320;SDS011;653;51.480;11.992;2024-02-28T12:36:19;17.63;;;14.60;;
1320;SDS011;653;51.480;11.992;2024-02-28T12:38:52;16.53;;;12.83;;
1320;SDS011;653;51.480;11.992;2024-02-28T12:41:26;18.43;;;14.20;;
1320;SDS011;653;51.480;11.992;2024-02-28T12:43:54;17.10;;;13.47;;
1320;SDS011;653;51.480;11.992;2024-02-28T12:46:23;17.77;;;13.23;;
1320;SDS011;653;51.480;11.992;2024-02-28T12:48:56;17.83;;;14.67;;
1320;SDS011;653;51.480;11.992;2024-02-28T12:51:36;18.23;;;13.70;;
1320;SDS011;653;51.480;11.992;2024-02-28T12:54:05;17.23;;;13.10;;
1320;SDS011;653;51.480;11.992;2024-02-28T12:56:33;15.60;;;13.07;;
1320;SDS011;653;51.480;11.992;2024-02-28T12:59:02;13.70;;;11.70;;
1320;SDS011;653;51.480;11.992;2024-02-28T13:01:28;15.13;;;13.27;;
1320;SDS011;653;51.480;11.992;2024-02-28T13:03:58;19.07;;;13.47;;
1320;SDS011;653;51.480;11.992;2024-02-28T13:06:41;16.10;;;12.30;;
1320;SDS011;653;51.480;11.992;2024-02-28T13:09:14;17.00;;;12.80;;
1320;SDS011;653;51.480;11.992;2024-02-28T13:11:57;15.40;;;12.20;;
1320;SDS011;653;51.480;11.992;2024-02-28T13:14:27;16.60;;;11.75;;
1320;SDS011;653;51.480;11.992;2024-02-28T13:16:57;13.50;;;12.10;;
1320;SDS011;653;51.480;11.992;2024-02-28T13:19:36;15.83;;;11.97;;
1320;SDS011;653;51.480;11.992;2024-02-28T13:22:11;13.83;;;10.77;;
1320;SDS011;653;51.480;11.992;2024-02-28T13:24:43;14.63;;;12.53;;
1320;SDS011;653;51.480;11.992;2024-02-28T13:27:09;12.97;;;10.30;;
1320;SDS011;653;51.480;11.992;2024-02-28T13:29:37;13.00;;;11.30;;
1320;SDS011;653;51.480;11.992;2024-02-28T13:32:04;15.63;;;13.17;;
1320;SDS011;653;51.480;11.992;2024-02-28T13:34:37;17.37;;;13.07;;
1320;SDS011;653;51.480;11.992;2024-02-28T13:37:06;13.10;;;11.80;;
1320;SDS011;653;51.480;11.992;2024-02-28T13:39:39;12.33;;;10.80;;
1320;SDS011;653;51.480;11.992;2024-02-28T13:42:12;13.93;;;11.40;;
1320;SDS011;653;51.480;11.992;2024-02-28T13:44:51;11.83;;;9.60;;
1320;SDS011;653;51.480;11.992;2024-02-28T13:47:19;11.03;;;9.80;;
1320;SDS011;653;51.480;11.992;2024-02-28T13:52:45;13.57;;;10.73;;
1320;SDS011;653;51.480;11.992;2024-02-28T13:55:17;11.10;;;9.97;;
1320;SDS011;653;51.480;11.992;2024-02-28T13:57:51;15.23;;;10.30;;
1320;SDS011;653;51.480;11.992;2024-02-28T14:00:28;12.63;;;11.10;;
1320;SDS011;653;51.480;11.992;2024-02-28T14:02:58;13.80;;;11.90;;
1320;SDS011;653;51.480;11.992;2024-02-28T14:05:24;12.47;;;10.43;;
1320;SDS011;653;51.480;11.992;2024-02-28T14:08:08;12.67;;;11.10;;
1320;SDS011;653;51.480;11.992;2024-02-28T14:10:37;13.10;;;11.03;;
1320;SDS011;653;51.480;11.992;2024-02-28T14:13:17;12.30;;;11.00;;
1320;SDS011;653;51.480;11.992;2024-02-28T14:15:59;11.93;;;10.73;;
1320;SDS011;653;51.480;11.992;2024-02-28T14:18:28;10.90;;;9.80;;
1320;SDS011;653;51.480;11.992;2024-02-28T14:20:59;12.73;;;10.53;;
1320;SDS011;653;51.480;11.992;2024-02-28T14:23:38;10.90;;;9.80;;
1320;SDS011;653;51.480;11.992;2024-02-28T14:26:09;11.20;;;10.10;;
1320;SDS011;653;51.480;11.992;2024-02-28T14:28:42;11.47;;;10.37;;
1320;SDS011;653;51.480;11.992;2024-02-28T14:31:28;12.77;;;11.57;;
1320;SDS011;653;51.480;11.992;2024-02-28T14:34:04;12.20;;;10.93;;
1320;SDS011;653;51.480;11.992;2024-02-28T14:36:35;11.87;;;10.67;;
1320;SDS011;653;51.480;11.992;2024-02-28T14:39:11;13.57;;;12.03;;
1320;SDS011;653;51.480;11.992;2024-02-28T14:41:42;11.87;;;10.63;;
1320;SDS011;653;51.480;11.992;2024-02-28T14:44:12;12.43;;;11.00;;
1320;SDS011;653;51.480;11.992;2024-02-28T14:46:42;13.20;;;11.67;;
1320;SDS011;653;51.480;11.992;2024-02-28T14:49:08;13.80;;;12.37;;
1320;SDS011;653;51.480;11.992;2024-02-28T14:51:48;15.07;;;12.53;;
1320;SDS011;653;51.480;11.992;2024-02-28T14:54:17;13.00;;;11.70;;
1320;SDS011;653;51.480;11.992;2024-02-28T14:56:45;13.07;;;11.87;;
1320;SDS011;653;51.480;11.992;2024-02-28T14:59:29;13.60;;;12.20;;
1320;SDS011;653;51.480;11.992;2024-02-28T15:01:59;14.40;;;13.00;;
1320;SDS011;653;51.480;11.992;2024-02-28T15:04:28;14.07;;;12.70;;